Terminal Aerodrome Forecast
Issued by NWS

Home | Current Version | Previous Version | Graphics & Text | Print | Product List | Glossary On
Versions: 1 2 3 4 5 6 7 8 9 10 11 12 13 14 15 16 17 18 19 20 21 22 23 24 25 26 27 28 29 30 31 32 33 34 35 36 37 38 39 40 41 42 43
733
FTUS43 KGRB 261120
TAFRHI
TAF
KRHI 261120Z 2612/2712 08005KT P6SM SCT003 OVC010
      TEMPO 2612/2614 4SM -SHRA BR BKN003
     FM261400 10005KT P6SM OVC012
     FM261600 32005KT P6SM SCT012 OVC022
      TEMPO 2616/2620 4SM SHRA BR BKN012
     FM270300 36008KT P6SM OVC006
     FM270900 34007KT P6SM -RAPL OVC004=

USA.gov is the U.S. government's official web portal to all federal, state and local government web resources and services.